GSVT2: Red River, Gainesville, TX

                                SHEF ID:       GSVT2     Red River near Gainesville, TX
STATION TYPE:
Regulating: Stage = 25.00, Flow = 54105

PRECIP STAGE RIV-FLOW BAT-LOAD
in ft cfs volt
Ccp-Rev Ccp-Rev Ccp-Rev Ccp-Rev
(America/Chicago)
04/04 00:00 0.00 4.63 172 12.49
04/04 01:00 0.00 4.62 169 12.41
04/04 02:00 0.00 4.69 197 12.41
04/04 03:00 0.00 4.68 193 12.41
04/04 04:00 0.00 4.70 202 12.41
04/04 05:00 0.00 4.70 202 12.41
04/04 06:00 1.32 4.93 313 12.41
04/04 07:00 0.20 5.03 373 12.41
04/04 08:00 0.20 5.16 466 12.41
04/04 09:00 0.07 5.30 548 12.41
04/04 10:00 0.01 5.40 612 12.57
04/04 11:00 0.00 5.44 640 12.97
04/04 12:00 0.00 ---- ---- 13.29
04/04 13:00 0.00 5.48 669 13.37
04/04 14:00 0.00 5.66 787 13.37
04/04 15:00 0.00 5.97 990 13.37
04/04 16:00 0.00 6.26 1155 13.29
04/04 17:00 0.00 6.49 1282 13.29
04/04 18:00 0.00 6.66 1383 13.21
04/04 19:00 0.00 6.76 1446 13.21
04/04 20:00 0.00 6.81 1478 13.13
04/04 21:00 0.00 6.81 1478 12.65
04/04 22:00 0.00 6.78 1458 12.49
04/04 23:00 0.00 6.75 1439 12.41
Data processed at Sun 05Apr2026 04:32 GMT

NOTICE: If you are parsing this page

Please convert to using our Data API. Starting early 2026 we will be migrating to: https://water.usace.army.mil with modern pages rendered in JavaScript. When this migration completes you will no longer be able to scrape this page! CWMSDataAPI (CDA)

Timeseries IDs (TSIDs)

TSIDs used from left to right in the data table
GAIN.Precip-Inc.Total.1Hour.1Hour.Ccp-Rev
GAIN.Stage.Inst.1Hour.0.Ccp-Rev
GAIN.Flow.Inst.1Hour.0.Ccp-Rev
GAIN.Volt-Battery Load.Inst.1Hour.0.Ccp-Rev

                            

All information presented herein is the property of the government of the United States of America and may be revised or deleted at any time without prior notice. Dissemination of this information without the expressed written consent of the Public Affairs Office, Tulsa District U.S. Army Corps of Engineers is strictly prohibited. These data are gathered electronically and, as presented, have NOT undergone any form of quality control. These data are NOT guaranteed to be valid or correct.